Time;durP1;ratioP1;P1;durP2;ratioP2;P2;SDS_P1;SDS_P2;PMS_P1;PMS_P2;Temp;Humidity;BMP_temperature;BMP_pressure;BME280_temperature;BME280_humidity;BME280_pressure;Samples;Min_cycle;Max_cycle;Signal;HPM_P1;HPM_P2
2021/09/11 00:00:15;;;;;;;15.30;12.50;;;18.00;99.90;;;;;;5073832;28;20129;-88
2021/09/11 00:03:11;;;;;;;14.68;12.07;;;18.00;99.90;;;;;;5131129;27;20424;-86
2021/09/11 00:05:37;;;;;;;15.05;13.02;;;18.00;99.90;;;;;;5109660;28;20035;-86
2021/09/11 00:08:04;;;;;;;15.02;12.10;;;17.90;99.90;;;;;;5110858;28;20110;-87
2021/09/11 00:10:30;;;;;;;15.82;12.85;;;17.90;99.90;;;;;;5109859;28;20050;-87
2021/09/11 00:12:57;;;;;;;13.77;12.32;;;17.90;99.90;;;;;;5109834;28;20092;-87
2021/09/11 00:15:31;;;;;;;14.35;12.38;;;17.90;99.90;;;;;;5110727;28;20137;-87
2021/09/11 00:17:56;;;;;;;14.90;13.40;;;17.90;99.90;;;;;;5111126;28;20019;-87
2021/09/11 00:20:23;;;;;;;14.07;12.43;;;17.90;99.90;;;;;;5109799;28;20031;-87
2021/09/11 00:22:49;;;;;;;14.15;11.55;;;17.90;99.90;;;;;;5110810;28;20028;-88
2021/09/11 00:25:15;;;;;;;15.18;12.77;;;17.90;99.90;;;;;;5109340;28;20088;-88
2021/09/11 00:27:41;;;;;;;16.80;13.30;;;17.80;99.90;;;;;;5108953;28;20027;-87
2021/09/11 00:30:07;;;;;;;17.15;14.05;;;17.80;99.90;;;;;;5109332;28;20115;-87
2021/09/11 00:32:34;;;;;;;17.67;14.55;;;17.70;99.90;;;;;;5110334;28;20039;-87
2021/09/11 00:35:01;;;;;;;17.42;14.68;;;17.70;99.90;;;;;;5109373;28;20379;-87
2021/09/11 00:37:27;;;;;;;18.83;14.70;;;17.70;99.90;;;;;;5109456;28;20027;-87
2021/09/11 00:39:52;;;;;;;17.83;14.57;;;17.70;99.90;;;;;;5109016;28;20028;-87
2021/09/11 00:42:18;;;;;;;18.10;15.40;;;17.70;99.90;;;;;;5110090;28;20039;-87
2021/09/11 00:44:44;;;;;;;17.38;15.30;;;17.80;99.90;;;;;;5109093;28;20421;-87
2021/09/11 00:47:10;;;;;;;17.92;14.65;;;17.70;99.90;;;;;;5109803;28;20016;-86
2021/09/11 00:49:36;;;;;;;17.65;14.90;;;17.70;99.90;;;;;;5117146;28;20023;-88
2021/09/11 00:52:02;;;;;;;15.48;12.85;;;17.70;99.90;;;;;;5109038;28;20541;-87
2021/09/11 00:54:29;;;;;;;15.60;12.80;;;17.70;99.90;;;;;;5109190;28;20016;-87
2021/09/11 00:56:55;;;;;;;15.20;12.35;;;17.80;99.90;;;;;;5108980;28;20027;-86
2021/09/11 00:59:22;;;;;;;17.30;13.73;;;17.80;99.90;;;;;;5108715;28;20073;-87
2021/09/11 01:01:48;;;;;;;16.90;13.20;;;17.80;99.90;;;;;;5108207;28;20055;-87
2021/09/11 01:04:14;;;;;;;17.05;14.57;;;17.80;99.90;;;;;;5109180;28;20023;-87
2021/09/11 01:06:40;;;;;;;16.58;13.25;;;17.80;99.90;;;;;;5109305;28;20073;-86
2021/09/11 01:09:05;;;;;;;15.30;13.23;;;17.80;99.90;;;;;;5110210;28;20099;-87
2021/09/11 01:11:33;;;;;;;14.73;13.15;;;17.80;99.90;;;;;;5110392;28;20526;-86
2021/09/11 01:13:59;;;;;;;16.63;13.00;;;17.70;99.90;;;;;;5099329;28;20070;-86
2021/09/11 01:16:25;;;;;;;17.02;13.38;;;17.60;99.90;;;;;;5095902;28;20081;-87
2021/09/11 01:18:51;;;;;;;17.73;13.05;;;17.60;99.90;;;;;;5095373;28;20042;-86
2021/09/11 01:21:17;;;;;;;18.58;14.45;;;17.50;99.90;;;;;;5100861;28;20024;-85
2021/09/11 01:23:43;;;;;;;17.73;13.93;;;17.50;99.90;;;;;;5104499;28;20024;-86
2021/09/11 01:26:14;;;;;;;15.77;12.65;;;17.50;99.90;;;;;;5103848;28;20031;-87
2021/09/11 01:28:40;;;;;;;17.33;12.60;;;17.40;99.90;;;;;;5104623;28;20035;-87
2021/09/11 01:31:06;;;;;;;14.23;11.70;;;17.40;99.90;;;;;;5097665;28;20123;-87
2021/09/11 01:33:32;;;;;;;16.17;11.48;;;17.30;99.90;;;;;;5095773;28;20027;-86
2021/09/11 01:35:58;;;;;;;17.30;11.70;;;17.30;99.90;;;;;;5096944;28;20020;-86
2021/09/11 01:38:25;;;;;;;15.55;11.13;;;17.30;99.90;;;;;;5096544;28;20114;-87
2021/09/11 01:40:50;;;;;;;17.17;12.80;;;17.20;99.90;;;;;;5094865;28;20062;-87
2021/09/11 01:43:25;;;;;;;15.10;11.70;;;17.20;99.90;;;;;;5095255;28;20020;-87
2021/09/11 01:45:52;;;;;;;15.02;11.45;;;17.10;99.90;;;;;;5094504;28;20028;-87
2021/09/11 01:48:17;;;;;;;12.88;10.63;;;17.10;99.90;;;;;;5094836;28;20058;-87
2021/09/11 01:50:45;;;;;;;18.02;11.15;;;17.10;99.90;;;;;;5094771;28;20113;-87
2021/09/11 01:53:11;;;;;;;13.15;10.77;;;17.10;99.90;;;;;;5095120;28;20040;-86
2021/09/11 01:55:37;;;;;;;15.02;10.05;;;17.00;99.90;;;;;;5094770;28;20074;-86
2021/09/11 01:58:03;;;;;;;13.13;9.98;;;17.00;99.90;;;;;;5094597;28;20043;-87
2021/09/11 02:00:30;;;;;;;15.93;11.15;;;17.00;99.90;;;;;;5094655;28;20028;-87
2021/09/11 02:02:56;;;;;;;17.05;12.38;;;17.00;99.90;;;;;;5094713;28;20083;-86
2021/09/11 02:05:21;;;;;;;18.00;13.48;;;16.90;99.90;;;;;;5095086;28;20017;-87
2021/09/11 02:07:47;;;;;;;16.88;13.85;;;16.90;99.90;;;;;;5094619;28;20020;-87
2021/09/11 02:10:14;;;;;;;18.90;14.32;;;16.90;99.90;;;;;;5094528;28;20464;-87
2021/09/11 02:12:41;;;;;;;17.65;13.88;;;16.90;99.90;;;;;;5094838;28;20028;-87
2021/09/11 02:15:09;;;;;;;17.63;12.43;;;16.80;99.90;;;;;;5094539;28;20026;-87
2021/09/11 02:17:36;;;;;;;18.83;14.95;;;16.80;99.90;;;;;;5094463;28;20375;-87
2021/09/11 02:20:02;;;;;;;19.20;14.88;;;16.80;99.90;;;;;;5094723;28;20020;-87
2021/09/11 02:22:28;;;;;;;19.35;14.88;;;16.80;99.90;;;;;;5094215;28;20061;-87
2021/09/11 02:24:54;;;;;;;18.83;14.13;;;16.80;99.90;;;;;;5093121;28;20032;-86
2021/09/11 02:27:20;;;;;;;17.88;13.75;;;16.70;99.90;;;;;;5094331;28;20024;-87
2021/09/11 02:29:46;;;;;;;17.98;14.95;;;16.70;99.90;;;;;;5095166;28;20027;-87
2021/09/11 02:32:13;;;;;;;18.25;13.32;;;16.70;99.90;;;;;;5094186;28;20024;-87
2021/09/11 02:34:39;;;;;;;17.50;12.80;;;16.70;99.90;;;;;;5093836;28;20050;-87
2021/09/11 02:37:05;;;;;;;16.88;12.73;;;16.70;99.90;;;;;;5093941;28;20081;-87
2021/09/11 02:39:31;;;;;;;17.58;12.57;;;16.60;99.90;;;;;;5094369;28;20475;-86
2021/09/11 02:41:56;;;;;;;17.13;12.05;;;16.60;99.90;;;;;;5095274;28;20062;-86
2021/09/11 02:44:22;;;;;;;16.77;11.57;;;16.60;99.90;;;;;;5094754;28;20024;-87
2021/09/11 02:46:49;;;;;;;15.52;12.18;;;16.50;99.90;;;;;;5093156;28;20024;-87
2021/09/11 02:49:14;;;;;;;16.13;13.25;;;16.50;99.90;;;;;;5093247;28;20048;-87
2021/09/11 02:51:40;;;;;;;18.60;13.65;;;16.50;99.90;;;;;;5093025;28;20064;-86
2021/09/11 02:54:06;;;;;;;16.55;13.15;;;16.50;99.90;;;;;;5093302;28;20023;-87
2021/09/11 02:56:32;;;;;;;15.45;12.00;;;16.40;99.90;;;;;;5094213;28;20073;-87
2021/09/11 02:58:58;;;;;;;16.88;12.57;;;16.40;99.90;;;;;;5093101;28;20024;-87
2021/09/11 03:01:24;;;;;;;17.45;12.93;;;16.40;99.90;;;;;;5093756;28;20064;-86
2021/09/11 03:03:51;;;;;;;15.40;11.38;;;16.40;99.90;;;;;;5096769;28;20028;-87
2021/09/11 03:06:17;;;;;;;17.35;11.93;;;16.40;99.90;;;;;;5092855;28;20028;-87
2021/09/11 03:08:43;;;;;;;17.92;13.23;;;16.30;99.90;;;;;;5093142;28;20024;-87
2021/09/11 03:11:09;;;;;;;16.30;13.00;;;16.40;99.90;;;;;;5092658;28;20032;-87
2021/09/11 03:13:35;;;;;;;17.95;14.98;;;16.30;99.90;;;;;;5092592;28;20081;-86
2021/09/11 03:16:01;;;;;;;17.98;14.10;;;16.30;99.90;;;;;;5092739;28;20165;-87
2021/09/11 03:18:27;;;;;;;20.23;13.88;;;16.30;99.90;;;;;;5094498;28;20023;-86
2021/09/11 03:20:53;;;;;;;16.92;12.85;;;16.30;99.90;;;;;;5092804;28;20409;-87
2021/09/11 03:23:19;;;;;;;17.52;13.48;;;16.20;99.90;;;;;;5093681;28;20024;-87
2021/09/11 03:25:45;;;;;;;18.38;12.85;;;16.20;99.90;;;;;;5093126;28;20026;-86
2021/09/11 03:28:11;;;;;;;17.65;12.82;;;16.20;99.90;;;;;;5093296;28;20024;-87
2021/09/11 03:30:37;;;;;;;18.55;13.48;;;16.20;99.90;;;;;;5094190;28;20023;-87
2021/09/11 03:33:03;;;;;;;19.77;14.13;;;16.20;99.90;;;;;;5075929;28;20491;-86
2021/09/11 03:35:30;;;;;;;15.95;12.32;;;16.20;99.90;;;;;;5092503;28;20435;-87
2021/09/11 03:37:56;;;;;;;16.65;10.80;;;16.20;99.90;;;;;;5092355;28;20040;-87
2021/09/11 03:40:22;;;;;;;15.93;11.57;;;16.10;99.90;;;;;;5092249;28;20024;-87
2021/09/11 03:42:48;;;;;;;15.05;11.45;;;16.10;99.90;;;;;;5092275;28;20070;-86
2021/09/11 03:45:14;;;;;;;16.70;11.82;;;16.10;99.90;;;;;;5092642;28;20172;-87
2021/09/11 03:47:40;;;;;;;16.70;11.77;;;16.10;99.90;;;;;;5094044;28;20487;-87
2021/09/11 03:50:07;;;;;;;16.15;11.63;;;16.10;99.90;;;;;;5092791;28;20485;-87
2021/09/11 03:52:33;;;;;;;16.70;12.20;;;16.10;99.90;;;;;;5092983;28;20031;-87
2021/09/11 03:54:59;;;;;;;16.65;11.80;;;16.10;99.90;;;;;;5092930;28;20021;-87
2021/09/11 03:57:25;;;;;;;18.75;12.82;;;16.10;99.90;;;;;;5092575;28;20031;-87
2021/09/11 03:59:51;;;;;;;17.13;13.20;;;16.00;99.90;;;;;;5092538;28;20080;-87
2021/09/11 04:02:18;;;;;;;18.77;13.35;;;16.00;99.90;;;;;;5092727;28;20135;-87
2021/09/11 04:04:44;;;;;;;17.73;13.60;;;16.00;99.90;;;;;;5092042;28;20505;-87
2021/09/11 04:07:10;;;;;;;19.88;14.27;;;16.00;99.90;;;;;;5093114;28;20047;-86
2021/09/11 04:09:36;;;;;;;19.20;14.38;;;16.00;99.90;;;;;;5091847;28;20023;-87
2021/09/11 04:12:02;;;;;;;18.15;15.48;;;16.00;99.90;;;;;;5092158;28;20050;-87
2021/09/11 04:14:28;;;;;;;19.42;14.13;;;16.00;99.90;;;;;;5093859;28;20020;-87
2021/09/11 04:16:54;;;;;;;22.73;15.27;;;16.00;99.90;;;;;;5092153;28;20020;-87
2021/09/11 04:19:20;;;;;;;19.58;14.88;;;16.00;99.90;;;;;;5094177;28;20076;-87
2021/09/11 04:21:46;;;;;;;21.23;15.05;;;16.00;99.90;;;;;;5092355;28;20115;-87
2021/09/11 04:24:14;;;;;;;21.40;16.15;;;16.00;99.90;;;;;;5092194;28;20028;-87
2021/09/11 04:26:40;;;;;;;18.92;14.48;;;16.10;99.90;;;;;;5092204;28;20017;-86
2021/09/11 04:29:06;;;;;;;20.50;15.80;;;16.10;99.90;;;;;;5092695;28;20114;-87
2021/09/11 04:31:32;;;;;;;21.48;16.25;;;16.20;99.90;;;;;;5075142;28;20023;-87
2021/09/11 04:33:59;;;;;;;21.42;16.73;;;16.20;99.90;;;;;;5092293;28;20028;-87
2021/09/11 04:36:25;;;;;;;20.67;16.15;;;16.20;99.90;;;;;;5075320;28;20596;-88
2021/09/11 04:38:51;;;;;;;19.35;15.07;;;16.20;99.90;;;;;;5092490;28;20037;-87
2021/09/11 04:41:16;;;;;;;18.67;14.07;;;16.30;99.90;;;;;;5091742;28;20031;-87
2021/09/11 04:43:43;;;;;;;21.23;14.65;;;16.30;99.90;;;;;;5092032;28;20376;-87
2021/09/11 04:46:09;;;;;;;17.75;13.95;;;16.30;99.90;;;;;;5091704;28;20016;-88
2021/09/11 04:48:35;;;;;;;19.90;15.57;;;16.30;99.90;;;;;;5093402;28;20122;-88
2021/09/11 04:51:01;;;;;;;20.35;13.77;;;16.40;99.90;;;;;;5097164;28;20020;-87
2021/09/11 04:53:27;;;;;;;20.52;15.13;;;16.30;99.90;;;;;;5096918;28;20459;-87
2021/09/11 04:55:53;;;;;;;22.08;15.50;;;16.30;99.90;;;;;;5094852;28;20027;-87
2021/09/11 04:58:19;;;;;;;21.92;15.88;;;16.30;99.90;;;;;;5095358;28;20020;-87
2021/09/11 05:00:46;;;;;;;17.55;14.30;;;16.30;99.90;;;;;;5095178;28;20392;-87
2021/09/11 05:03:11;;;;;;;18.77;14.55;;;16.40;99.90;;;;;;5096398;28;20112;-87
2021/09/11 05:05:38;;;;;;;21.25;15.27;;;16.30;99.90;;;;;;5095239;28;20471;-87
2021/09/11 05:08:05;;;;;;;23.48;15.23;;;16.40;99.90;;;;;;5095153;28;20059;-87
2021/09/11 05:10:31;;;;;;;21.10;16.35;;;16.40;99.90;;;;;;5077695;28;20123;-87
2021/09/11 05:12:57;;;;;;;23.45;16.25;;;16.40;99.90;;;;;;5094941;28;20463;-87
2021/09/11 05:15:25;;;;;;;19.55;14.73;;;16.40;99.90;;;;;;5094632;28;20103;-88
2021/09/11 05:17:51;;;;;;;18.02;13.55;;;16.40;99.90;;;;;;5094677;28;20107;-88
2021/09/11 05:20:17;;;;;;;18.83;12.15;;;16.40;99.90;;;;;;5094832;28;20082;-87
2021/09/11 05:22:43;;;;;;;17.98;12.48;;;16.40;99.90;;;;;;5094515;28;20081;-88
2021/09/11 05:25:10;;;;;;;15.95;11.73;;;16.40;99.90;;;;;;5094677;28;20047;-87
2021/09/11 05:27:37;;;;;;;16.70;13.25;;;16.50;99.90;;;;;;5096022;28;20415;-88
2021/09/11 05:30:04;;;;;;;16.38;11.75;;;16.40;99.90;;;;;;5094805;28;20035;-88
2021/09/11 05:32:31;;;;;;;17.63;13.55;;;16.50;99.90;;;;;;5094299;28;20043;-89
2021/09/11 05:34:57;;;;;;;15.73;12.43;;;16.50;99.90;;;;;;5094904;28;20732;-89
2021/09/11 05:37:23;;;;;;;18.70;13.20;;;16.50;99.90;;;;;;5095033;28;20016;-89
2021/09/11 05:39:48;;;;;;;21.73;13.88;;;16.50;99.90;;;;;;5094923;28;20020;-89
2021/09/11 05:42:16;;;;;;;20.63;14.75;;;16.50;99.90;;;;;;5094892;28;20035;-88
2021/09/11 05:44:42;;;;;;;18.08;13.27;;;16.60;99.90;;;;;;5095059;28;20505;-88
2021/09/11 05:47:09;;;;;;;16.63;13.77;;;16.60;99.90;;;;;;5096261;28;20035;-89
2021/09/11 05:49:35;;;;;;;17.80;13.02;;;16.60;99.90;;;;;;5078011;28;20157;-88
2021/09/11 05:52:01;;;;;;;16.58;11.63;;;16.60;99.90;;;;;;5094583;28;20110;-88
2021/09/11 05:54:28;;;;;;;15.90;12.27;;;16.60;99.90;;;;;;5094663;28;20026;-88
2021/09/11 05:56:55;;;;;;;16.15;12.00;;;16.70;99.90;;;;;;5094366;28;20020;-89
2021/09/11 05:59:21;;;;;;;14.95;11.68;;;16.70;99.90;;;;;;5094384;28;20119;-88
2021/09/11 06:01:47;;;;;;;15.93;11.98;;;16.70;99.90;;;;;;5093677;28;20139;-87
2021/09/11 06:04:13;;;;;;;15.75;11.77;;;16.70;99.90;;;;;;5094439;28;20094;-87
2021/09/11 06:06:41;;;;;;;15.40;11.95;;;16.70;99.90;;;;;;5074101;28;20476;-87
2021/09/11 06:09:07;;;;;;;15.80;12.27;;;16.80;99.90;;;;;;5091317;28;20043;-87
2021/09/11 06:11:33;;;;;;;14.90;11.85;;;16.80;99.90;;;;;;5093615;28;20020;-89
2021/09/11 06:13:59;;;;;;;16.55;11.27;;;16.90;99.90;;;;;;5094013;28;20020;-89
2021/09/11 06:16:25;;;;;;;14.27;10.30;;;16.80;99.90;;;;;;5094290;28;20020;-89
2021/09/11 06:18:52;;;;;;;15.48;10.43;;;16.90;99.90;;;;;;5094012;28;20012;-88
2021/09/11 06:21:19;;;;;;;17.35;11.43;;;16.90;99.90;;;;;;5094007;28;20024;-89
2021/09/11 06:23:46;;;;;;;13.88;11.23;;;16.90;99.90;;;;;;5094794;28;20041;-89
2021/09/11 06:26:12;;;;;;;13.80;10.52;;;17.00;99.90;;;;;;5093131;28;20031;-88
2021/09/11 06:28:38;;;;;;;14.60;12.00;;;16.90;99.90;;;;;;5094001;28;20024;-89
2021/09/11 06:31:05;;;;;;;13.55;10.45;;;16.90;99.90;;;;;;5093416;28;20028;-90
2021/09/11 06:33:32;;;;;;;14.75;9.80;;;16.90;99.90;;;;;;5091262;28;20028;-88
2021/09/11 06:35:58;;;;;;;13.10;10.02;;;16.90;99.90;;;;;;5091207;28;20025;-88
2021/09/11 06:38:24;;;;;;;15.60;12.23;;;16.90;99.90;;;;;;5092873;28;20027;-88
2021/09/11 06:40:49;;;;;;;14.05;10.38;;;16.90;99.90;;;;;;5096212;28;20104;-88
2021/09/11 06:43:15;;;;;;;14.52;11.25;;;17.00;99.90;;;;;;5092683;28;20016;-88
2021/09/11 06:45:43;;;;;;;14.27;10.05;;;17.00;99.90;;;;;;5091167;28;20028;-88
2021/09/11 06:48:11;;;;;;;16.00;11.00;;;17.00;99.90;;;;;;5090942;28;20039;-88
2021/09/11 06:50:37;;;;;;;13.15;9.85;;;17.10;99.90;;;;;;5091414;28;20012;-88
2021/09/11 06:53:05;;;;;;;11.75;9.57;;;17.10;99.90;;;;;;5091034;28;20549;-88
2021/09/11 06:55:31;;;;;;;12.07;9.73;;;17.20;99.90;;;;;;5090474;28;20036;-88
2021/09/11 06:57:57;;;;;;;11.23;8.48;;;17.20;99.90;;;;;;5092495;28;20020;-89
2021/09/11 07:00:23;;;;;;;11.45;9.60;;;17.30;99.90;;;;;;5090933;28;20101;-88
2021/09/11 07:02:49;;;;;;;13.27;9.88;;;17.30;99.90;;;;;;5090223;28;20060;-89
2021/09/11 07:05:18;;;;;;;13.60;9.63;;;17.30;99.90;;;;;;5090569;28;20033;-87
2021/09/11 07:07:45;;;;;;;12.88;10.27;;;17.40;99.90;;;;;;5091191;28;20103;-88
2021/09/11 07:10:11;;;;;;;12.02;9.20;;;17.40;99.90;;;;;;5090813;28;20028;-89
2021/09/11 07:12:37;;;;;;;15.55;10.88;;;17.50;99.90;;;;;;5091619;28;20020;-87
2021/09/11 07:15:06;;;;;;;13.73;10.98;;;17.50;99.90;;;;;;5090513;28;20028;-88
2021/09/11 07:17:32;;;;;;;11.80;9.63;;;17.60;99.90;;;;;;5086623;28;20038;-87
2021/09/11 07:19:58;;;;;;;12.80;9.63;;;17.60;99.90;;;;;;5090452;28;20024;-87
2021/09/11 07:22:25;;;;;;;11.98;10.27;;;17.70;99.90;;;;;;5092665;28;20107;-87
2021/09/11 07:24:51;;;;;;;12.80;10.93;;;17.70;99.90;;;;;;5091666;28;20044;-87
2021/09/11 07:27:20;;;;;;;14.82;10.25;;;17.70;99.90;;;;;;5091233;28;20074;-87
2021/09/11 07:29:47;;;;;;;14.90;10.68;;;17.80;99.90;;;;;;5092544;28;20521;-86
2021/09/11 07:32:14;;;;;;;14.50;11.48;;;17.90;99.90;;;;;;5091232;28;20069;-87
2021/09/11 07:34:40;;;;;;;14.73;11.95;;;18.10;99.90;;;;;;5091233;28;20024;-88
2021/09/11 07:37:06;;;;;;;18.83;12.40;;;18.20;99.90;;;;;;5091204;28;20046;-88
2021/09/11 07:39:33;;;;;;;13.18;10.77;;;18.30;99.90;;;;;;5091567;28;20383;-88
2021/09/11 07:42:00;;;;;;;13.73;11.13;;;18.30;99.90;;;;;;5091430;28;20029;-88
2021/09/11 07:44:26;;;;;;;12.73;10.80;;;18.30;99.90;;;;;;5090352;28;20047;-88
2021/09/11 07:46:52;;;;;;;15.15;11.95;;;18.50;99.90;;;;;;5103574;28;20024;-87
2021/09/11 07:49:18;;;;;;;16.20;11.88;;;18.70;99.90;;;;;;5102906;28;20031;-87
2021/09/11 07:51:44;;;;;;;13.40;11.63;;;18.70;99.90;;;;;;5100410;28;20023;-87
2021/09/11 07:54:11;;;;;;;14.45;11.63;;;18.70;99.90;;;;;;5100468;28;20028;-87
2021/09/11 07:56:37;;;;;;;15.25;11.48;;;18.70;99.90;;;;;;5077856;28;20024;-87
2021/09/11 07:59:05;;;;;;;15.48;11.63;;;18.60;99.90;;;;;;5094439;28;20146;-87
2021/09/11 08:01:31;;;;;;;15.27;12.45;;;18.70;99.90;;;;;;5092470;28;20661;-87
2021/09/11 08:03:58;;;;;;;13.82;11.63;;;18.70;99.90;;;;;;5092875;28;20035;-88
2021/09/11 08:06:23;;;;;;;13.85;11.85;;;18.70;99.90;;;;;;5091780;28;20375;-88
2021/09/11 08:08:49;;;;;;;19.05;13.07;;;18.80;99.90;;;;;;5092296;28;20031;-86
2021/09/11 08:11:16;;;;;;;16.85;12.88;;;18.80;99.90;;;;;;5090432;28;20119;-87
2021/09/11 08:13:42;;;;;;;16.08;12.15;;;18.80;99.90;;;;;;5092347;28;20024;-89
2021/09/11 08:16:08;;;;;;;16.30;13.43;;;18.90;99.90;;;;;;5091945;28;20081;-87
2021/09/11 08:18:34;;;;;;;19.20;14.93;;;18.90;99.90;;;;;;5087410;28;20020;-88
2021/09/11 08:21:01;;;;;;;15.00;12.77;;;18.80;99.90;;;;;;5089741;28;20032;-88
2021/09/11 08:23:27;;;;;;;16.15;12.43;;;18.90;99.90;;;;;;5072410;28;20420;-88
2021/09/11 08:25:53;;;;;;;16.77;11.63;;;18.90;99.90;;;;;;5092433;28;20460;-87
2021/09/11 08:28:19;;;;;;;12.02;10.70;;;19.10;99.90;;;;;;5098314;28;20035;-88
2021/09/11 08:30:46;;;;;;;13.73;11.75;;;19.20;99.90;;;;;;5074192;28;20040;-88
2021/09/11 08:33:13;;;;;;;15.75;13.40;;;19.20;99.90;;;;;;5094878;28;20138;-88
2021/09/11 08:35:40;;;;;;;17.40;14.15;;;19.30;99.90;;;;;;5093672;28;20020;-88
2021/09/11 08:38:06;;;;;;;15.88;13.43;;;19.40;99.90;;;;;;5073511;28;20020;-88
2021/09/11 08:40:32;;;;;;;16.42;12.98;;;19.40;99.90;;;;;;5076613;28;20035;-88
2021/09/11 08:42:58;;;;;;;20.67;15.98;;;19.40;99.90;;;;;;5093302;28;20047;-88
2021/09/11 08:45:24;;;;;;;20.48;14.77;;;19.40;99.90;;;;;;5093053;28;20106;-88
2021/09/11 08:47:53;;;;;;;16.90;14.85;;;19.30;99.90;;;;;;5072224;28;20392;-88
2021/09/11 08:50:22;;;;;;;15.02;13.43;;;19.30;99.90;;;;;;5088450;28;20495;-88
2021/09/11 08:52:50;;;;;;;21.00;16.10;;;19.30;99.90;;;;;;5074389;28;20182;-88
2021/09/11 08:55:18;;;;;;;19.27;13.23;;;19.30;99.90;;;;;;5093120;28;20048;-88
2021/09/11 08:58:06;;;;;;;15.02;12.98;;;19.40;99.90;;;;;;5092611;28;20024;-89
2021/09/11 09:00:58;;;;;;;16.48;13.32;;;19.50;99.90;;;;;;5073016;28;20387;-88
2021/09/11 09:03:31;;;;;;;15.68;13.77;;;19.50;99.90;;;;;;5078819;28;20044;-88
2021/09/11 09:06:28;;;;;;;17.15;14.07;;;19.50;99.90;;;;;;5094284;28;20147;-88
2021/09/11 09:09:14;;;;;;;17.63;14.10;;;19.60;99.90;;;;;;5092952;28;20169;-87
2021/09/11 09:11:44;;;;;;;17.55;14.48;;;19.70;99.90;;;;;;5075267;28;20024;-88
2021/09/11 09:14:21;;;;;;;17.48;14.25;;;19.70;99.90;;;;;;5093346;28;20415;-88
2021/09/11 09:16:52;;;;;;;17.85;15.95;;;19.80;99.90;;;;;;5094314;28;20443;-87
2021/09/11 09:19:23;;;;;;;17.75;15.93;;;19.70;99.90;;;;;;5093248;28;20028;-88
2021/09/11 09:21:52;;;;;;;15.98;14.27;;;19.70;99.90;;;;;;5094227;28;20020;-87
2021/09/11 09:24:43;;;;;;;17.67;14.18;;;19.70;99.90;;;;;;5076833;28;20480;-87
2021/09/11 09:27:10;;;;;;;16.95;15.15;;;19.70;99.90;;;;;;5077885;28;20028;-87
2021/09/11 09:29:37;;;;;;;17.27;15.18;;;19.70;99.90;;;;;;5093426;28;20020;-87
2021/09/11 09:32:05;;;;;;;17.17;14.88;;;19.60;99.90;;;;;;5092686;28;20035;-86
2021/09/11 09:34:43;;;;;;;19.02;15.85;;;19.60;99.90;;;;;;5071104;28;20054;-87
2021/09/11 09:37:14;;;;;;;18.20;16.30;;;19.60;99.90;;;;;;5077654;28;20063;-86
2021/09/11 09:39:46;;;;;;;19.65;17.13;;;19.60;99.90;;;;;;5092998;28;20012;-87
2021/09/11 09:42:17;;;;;;;22.42;18.70;;;19.60;99.90;;;;;;5093157;28;20526;-87
2021/09/11 09:44:46;;;;;;;21.58;18.38;;;19.50;99.90;;;;;;5094217;28;20028;-86
2021/09/11 09:47:18;;;;;;;18.80;16.10;;;19.50;99.90;;;;;;5093723;28;20032;-86
2021/09/11 09:50:06;;;;;;;18.67;16.67;;;19.50;99.90;;;;;;5092510;28;20016;-86
2021/09/11 09:52:34;;;;;;;22.63;19.58;;;19.60;99.90;;;;;;5092159;28;20104;-86
2021/09/11 09:55:04;;;;;;;21.23;18.17;;;19.50;99.90;;;;;;5092144;28;20096;-87
2021/09/11 09:57:34;;;;;;;21.45;17.45;;;19.50;99.90;;;;;;5091964;28;20075;-86
2021/09/11 10:00:01;;;;;;;22.50;20.10;;;19.50;99.90;;;;;;5092544;28;20039;-87
2021/09/11 10:02:32;;;;;;;20.70;18.40;;;19.50;99.90;;;;;;5090592;28;20052;-87
2021/09/11 10:05:00;;;;;;;21.58;18.23;;;19.50;99.90;;;;;;5075744;28;20040;-86
2021/09/11 10:07:53;;;;;;;26.17;21.75;;;19.40;99.90;;;;;;5086341;28;20020;-87
2021/09/11 10:10:26;;;;;;;21.58;18.55;;;19.50;99.90;;;;;;5092008;28;20024;-87
2021/09/11 10:13:04;;;;;;;23.75;20.98;;;19.40;99.90;;;;;;5092189;28;20119;-86
2021/09/11 10:15:39;;;;;;;25.08;22.05;;;19.50;99.90;;;;;;5097848;28;20020;-86
2021/09/11 10:18:34;;;;;;;25.00;21.48;;;19.50;99.90;;;;;;5093533;28;20043;-86
2021/09/11 10:21:24;;;;;;;25.05;21.67;;;19.60;99.90;;;;;;5091480;28;20016;-86
2021/09/11 10:23:55;;;;;;;21.85;19.55;;;19.60;99.90;;;;;;5092060;28;20024;-86
2021/09/11 10:26:46;;;;;;;22.23;19.17;;;19.60;99.90;;;;;;5091829;28;20052;-86
2021/09/11 10:29:35;;;;;;;21.63;19.30;;;19.60;99.90;;;;;;5078231;28;20061;-86
2021/09/11 10:32:11;;;;;;;23.98;20.45;;;19.60;99.90;;;;;;5092093;28;20047;-86
2021/09/11 10:34:52;;;;;;;22.77;20.33;;;19.60;99.90;;;;;;5091056;28;20074;-86
2021/09/11 10:37:51;;;;;;;25.88;21.75;;;19.50;99.90;;;;;;5077214;28;20024;-86
2021/09/11 10:40:31;;;;;;;20.67;18.50;;;19.50;99.90;;;;;;5091205;28;20161;-86
2021/09/11 10:43:19;;;;;;;20.60;18.35;;;19.50;99.90;;;;;;5092851;28;20395;-86
2021/09/11 10:45:59;;;;;;;20.30;17.77;;;19.60;99.90;;;;;;5089893;28;20037;-86
2021/09/11 10:48:43;;;;;;;18.33;16.38;;;19.70;99.90;;;;;;5091963;28;20489;-86
2021/09/11 10:51:40;;;;;;;19.77;17.73;;;19.80;99.90;;;;;;5076006;28;20034;-86
2021/09/11 10:54:22;;;;;;;22.88;19.58;;;19.80;99.90;;;;;;5091277;28;20043;-86
2021/09/11 10:57:01;;;;;;;22.90;20.52;;;19.90;99.90;;;;;;5091596;28;20031;-86
2021/09/11 10:59:40;;;;;;;24.55;20.77;;;20.10;99.90;;;;;;5091877;28;20036;-86
2021/09/11 11:02:36;;;;;;;22.27;19.63;;;20.20;99.90;;;;;;5091107;28;20036;-88
2021/09/11 11:05:10;;;;;;;21.85;19.60;;;20.40;99.90;;;;;;5080649;28;20036;-87
2021/09/11 11:07:44;;;;;;;23.63;20.90;;;20.60;99.90;;;;;;5091415;28;20042;-86
2021/09/11 11:10:14;;;;;;;24.13;21.52;;;20.70;99.90;;;;;;5073920;28;20051;-88
2021/09/11 11:12:48;;;;;;;25.80;21.80;;;20.70;99.90;;;;;;5071056;28;20119;-87
2021/09/11 11:15:27;;;;;;;23.77;21.27;;;20.60;99.90;;;;;;5091408;28;20039;-87
2021/09/11 11:17:56;;;;;;;25.77;22.42;;;20.60;99.90;;;;;;5073867;28;20349;-86
2021/09/11 11:20:34;;;;;;;26.08;23.25;;;20.60;99.90;;;;;;5091937;28;20028;-87
2021/09/11 11:23:01;;;;;;;25.60;23.00;;;20.70;99.90;;;;;;5090309;28;20028;-88
2021/09/11 11:25:34;;;;;;;24.63;21.92;;;20.80;99.90;;;;;;5091004;28;20111;-87
2021/09/11 11:28:06;;;;;;;27.25;24.30;;;21.50;99.90;;;;;;5090738;28;20473;-88
2021/09/11 11:30:50;;;;;;;23.20;20.73;;;21.80;99.90;;;;;;5073720;28;20047;-87
2021/09/11 11:33:19;;;;;;;22.85;20.17;;;22.10;99.90;;;;;;5089052;28;20020;-88
2021/09/11 11:35:45;;;;;;;21.30;18.67;;;22.70;99.90;;;;;;5091611;28;20012;-88
2021/09/11 11:38:14;;;;;;;21.52;19.38;;;23.30;99.90;;;;;;5090336;28;20552;-87
2021/09/11 11:40:41;;;;;;;23.30;20.85;;;23.20;99.90;;;;;;5071131;28;20056;-87
2021/09/11 11:43:07;;;;;;;21.48;19.30;;;22.90;99.90;;;;;;5089852;28;20403;-87
2021/09/11 11:45:34;;;;;;;18.77;16.88;;;23.30;99.90;;;;;;5073638;28;20081;-88
2021/09/11 11:48:13;;;;;;;20.23;17.33;;;24.50;99.90;;;;;;5089799;28;20047;-89
2021/09/11 11:50:41;;;;;;;16.80;15.13;;;25.60;99.90;;;;;;5089456;28;20020;-88
2021/09/11 11:53:12;;;;;;;17.15;15.40;;;26.00;99.90;;;;;;5090637;28;20039;-88
2021/09/11 11:55:45;;;;;;;15.30;13.77;;;25.80;99.90;;;;;;5078353;28;20112;-89
2021/09/11 11:58:15;;;;;;;15.93;14.38;;;26.20;99.90;;;;;;5082418;28;20035;-88
2021/09/11 12:00:52;;;;;;;14.80;13.35;;;26.10;99.90;;;;;;5089844;28;20047;-88
2021/09/11 12:03:35;;;;;;;16.15;14.48;;;25.70;99.90;;;;;;5083406;28;20044;-89
2021/09/11 12:06:01;;;;;;;;;;;25.00;99.90;;;;;;5090682;28;20095;-89
2021/09/11 12:08:28;;;;;;;15.60;14.18;;;24.20;99.90;;;;;;5090545;28;19904;-89
2021/09/11 12:10:56;;;;;;;16.20;14.18;;;23.70;99.90;;;;;;5089553;28;20479;-88
2021/09/11 12:13:22;;;;;;;16.98;15.35;;;23.30;99.90;;;;;;5089499;28;20019;-90
2021/09/11 12:15:49;;;;;;;16.90;15.30;;;22.90;99.90;;;;;;5069690;28;20032;-89
2021/09/11 12:18:18;;;;;;;16.65;14.68;;;22.60;99.90;;;;;;5089527;28;20099;-88
2021/09/11 12:20:53;;;;;;;12.43;11.23;;;22.10;99.90;;;;;;5070412;28;20525;-88
2021/09/11 12:23:27;;;;;;;9.55;8.65;;;21.40;99.90;;;;;;5088692;28;20032;-89
2021/09/11 12:25:59;;;;;;;7.22;6.53;;;20.60;99.90;;;;;;5079960;28;20376;-89
2021/09/11 12:28:50;;;;;;;6.93;6.27;;;20.10;99.90;;;;;;5089792;28;20513;-88
2021/09/11 12:31:18;;;;;;;5.70;5.10;;;19.80;99.90;;;;;;5089536;28;20309;-89
2021/09/11 12:33:56;;;;;;;4.95;4.45;;;19.70;99.90;;;;;;5089636;28;20056;-89
2021/09/11 12:36:32;;;;;;;4.60;4.07;;;19.60;99.90;;;;;;5089447;28;20111;-89